Hlavní strana
METAR-TAF:

METAR-TAF

Letiště :

Mezinárodní letiště Davida Budovatele

Kutaisi, Gruzie

zeměpisná šířka: 42-10-35N, zeměpisná délka: 042-28-57E, výška: 68 m

Aktuální stav počasí

Zpráva byla vytvořena před 21 minutami, v 05:00 UTC
Východní vítr 9 kt
Teplota 11°C
Vlhkost vzduchu 76%
Tlak 1020 hPa
Viditelnost 10 km a více
Polojasno ve výšce 9900 ft

METAR: UGKO 050500Z 09009KT 9999 SCT099 11/07 Q1020 NOSIG

Čas: 09:21 (05:21 UTC)

Předpověď počasí

Zpráva byla vytvořena před 6 hodinami a 21 minutami, v 23:00 UTC
Předpověď platná od 05 v 00 UTC do 05 v 24 UTC
Východní vítr 7 kt
Viditelnost 10 km a více
Polojasno ve výšce 10000 ft
Dočasný
od 05 v 02 UTC do 05 v 09 UTC
Východní vítr 17 kt
Změna
od 05 v 10 UTC do 05 v 13 UTC
Západojihozápadní vítr 14 kt
Polojasno ve výšce 3000 ft
Zataženo ve výšce 6000 ft

TAF: UGKO 042300Z 0500/0524 08007KT 9999 SCT100 TX22/0512Z TN08/0502Z TEMPO 0502/0509 08017KT BECMG 0510/0513 25014KT SCT030 OVC060

Stav a předpovědi počasí z více než 4 000 letišť (zprávy METAR a TAF).

Červené a žluté tečky na mapě představují dostupné meteorologické stanice.

Když kurzor umístíte na tečku, zobrazí se název stanice.

Pak kliknutím zobrazíte stav a předpověď počasí.

Chcete-li změnit mapu, kliknutím na zelené tlačítko se znaménkem +mapu přiblížíte, kliknutím na zelené tlačítko se znaménkem – mapu oddálíte a kliknutím na zelené šipky přejdete na sousední mapy.


METAR-TAF: